Time;durP1;ratioP1;P1;durP2;ratioP2;P2;SDS_P1;SDS_P2;PMS_P1;PMS_P2;Temp;Humidity;BMP_temperature;BMP_pressure;BME280_temperature;BME280_humidity;BME280_pressure;Samples;Min_cycle;Max_cycle;Signal;HPM_P1;HPM_P2
2023/08/29 00:02:20;;;;;;;9.95;5.87;;;;;;;31.26;100.00;100456.06;143721;658;46012;-69
2023/08/29 00:04:46;;;;;;;6.65;5.53;;;;;;;31.29;100.00;100452.59;143719;576;47006;-69
2023/08/29 00:07:12;;;;;;;7.90;5.62;;;;;;;31.24;100.00;100464.69;143718;567;47008;-69
2023/08/29 00:09:38;;;;;;;6.15;5.60;;;;;;;31.26;100.00;100456.06;143716;612;48008;-69
2023/08/29 00:12:05;;;;;;;10.60;6.03;;;;;;;31.34;100.00;100452.34;143715;602;47011;-69
2023/08/29 00:14:32;;;;;;;10.35;5.93;;;;;;;31.36;100.00;100446.47;143717;583;47006;-69
2023/08/29 00:16:58;;;;;;;9.27;5.85;;;;;;;31.37;100.00;100459.19;143716;594;47008;-69
2023/08/29 00:19:24;;;;;;;6.40;5.55;;;;;;;31.39;100.00;100457.66;143722;577;47002;-70
2023/08/29 00:21:51;;;;;;;6.68;5.68;;;;;;;31.39;100.00;100452.12;143720;643;47004;-70
2023/08/29 00:24:17;;;;;;;8.18;5.65;;;;;;;31.35;100.00;100455.94;143720;577;47004;-70
2023/08/29 00:26:44;;;;;;;9.63;6.10;;;;;;;31.33;100.00;100466.56;143721;577;47006;-69
2023/08/29 00:29:10;;;;;;;10.70;4.85;;;;;;;31.24;100.00;100455.59;143719;577;47002;-70
2023/08/29 00:31:36;;;;;;;7.40;5.43;;;;;;;31.38;100.00;100458.03;143717;577;47010;-69
2023/08/29 00:34:02;;;;;;;6.47;4.68;;;;;;;31.26;100.00;100459.62;143718;567;47004;-70
2023/08/29 00:36:29;;;;;;;12.75;5.22;;;;;;;31.26;100.00;100462.41;143717;662;46006;-70
2023/08/29 00:38:55;;;;;;;6.72;4.90;;;;;;;31.20;100.00;100462.97;143715;648;47002;-72
2023/08/29 00:41:21;;;;;;;6.68;5.25;;;;;;;31.02;100.00;100459.59;143721;588;47010;-70
2023/08/29 00:43:48;;;;;;;8.07;6.03;;;;;;;31.03;100.00;100456.47;143722;603;47004;-70
2023/08/29 00:46:15;;;;;;;8.00;5.40;;;;;;;30.94;100.00;100448.25;143722;613;46019;-70
2023/08/29 00:48:42;;;;;;;7.72;5.45;;;;;;;30.93;100.00;100445.81;143722;573;47002;-70
2023/08/29 00:51:09;;;;;;;6.85;6.00;;;;;;;31.00;100.00;100446.03;143719;598;46928;-70
2023/08/29 00:53:35;;;;;;;6.97;5.55;;;;;;;30.99;100.00;100449.97;143719;641;47008;-71
2023/08/29 00:56:02;;;;;;;9.00;4.97;;;;;;;30.91;100.00;100443.38;143720;591;47007;-71
2023/08/29 00:58:28;;;;;;;9.30;5.10;;;;;;;30.88;100.00;100443.25;143724;593;47006;-70
2023/08/29 03:01:23;;;;;;;5.28;4.78;;;;;;;30.15;100.00;100401.91;143737;590;47008;-70
2023/08/29 03:03:50;;;;;;;6.00;4.75;;;;;;;30.18;100.00;100397.69;143728;629;47004;-69
2023/08/29 03:06:16;;;;;;;7.00;5.35;;;;;;;30.06;100.00;100398.44;143729;609;46926;-70
2023/08/29 03:08:43;;;;;;;9.75;5.65;;;;;;;30.17;100.00;100399.63;143729;579;47004;-69
2023/08/29 03:11:09;;;;;;;9.93;5.53;;;;;;;30.15;100.00;100387.28;143725;573;47008;-69
2023/08/29 03:13:35;;;;;;;8.13;5.43;;;;;;;30.20;100.00;100384.28;143729;673;47004;-69
2023/08/29 03:16:13;;;;;;;6.80;5.35;;;;;;;30.21;100.00;100377.59;143728;567;47006;-68
2023/08/29 03:18:39;;;;;;;9.00;6.07;;;;;;;30.25;100.00;100381.28;143729;644;47002;-70
2023/08/29 03:21:06;;;;;;;6.82;5.30;;;;;;;30.24;100.00;100377.72;143729;608;46010;-69
2023/08/29 03:23:43;;;;;;;6.25;5.20;;;;;;;30.22;100.00;100384.75;143728;584;47009;-70
2023/08/29 03:26:10;;;;;;;7.95;6.05;;;;;;;30.17;100.00;100374.69;143729;583;47000;-70
2023/08/29 03:28:37;;;;;;;8.20;6.30;;;;;;;30.16;100.00;100381.38;143730;608;47004;-70
2023/08/29 03:31:13;;;;;;;8.30;5.93;;;;;;;30.20;100.00;100376.78;143726;656;47008;-69
2023/08/29 03:33:41;;;;;;;8.38;5.22;;;;;;;30.21;100.00;100377.59;143729;579;47004;-69
2023/08/29 03:36:08;;;;;;;10.35;6.47;;;;;;;30.20;100.00;100367.66;143724;634;47006;-69
2023/08/29 03:38:42;;;;;;;6.87;5.43;;;;;;;30.19;100.00;100361.31;143723;599;47002;-69
2023/08/29 03:41:08;;;;;;;6.87;5.65;;;;;;;30.16;100.00;100358.44;143728;647;47011;-69
2023/08/29 03:43:36;;;;;;;7.72;5.25;;;;;;;30.12;100.00;100363.03;143731;576;47004;-69
2023/08/29 03:46:06;;;;;;;9.10;5.65;;;;;;;30.10;100.00;100364.16;143730;581;47006;-71
2023/08/29 03:48:33;;;;;;;18.75;6.55;;;;;;;30.06;100.00;100367.97;143731;578;47002;-69
2023/08/29 03:51:06;;;;;;;6.43;5.53;;;;;;;30.06;100.00;100363.22;143725;573;47010;-70
2023/08/29 03:53:36;;;;;;;13.05;6.22;;;;;;;30.04;100.00;100351.69;143729;598;47013;-69
2023/08/29 03:56:03;;;;;;;8.27;5.28;;;;;;;30.06;100.00;100359.66;143728;568;47000;-69
2023/08/29 03:58:31;;;;;;;13.00;5.62;;;;;;;30.04;100.00;100368.28;143732;592;47002;-68
2023/08/29 04:00:58;;;;;;;7.78;5.18;;;;;;;30.00;100.00;100378.44;143724;654;47010;-69
2023/08/29 04:03:24;;;;;;;11.50;5.28;;;;;;;30.01;100.00;100377.28;143724;568;47004;-69
2023/08/29 04:05:51;;;;;;;15.55;5.82;;;;;;;30.02;100.00;100383.63;143723;572;47006;-69
2023/08/29 04:08:17;;;;;;;12.82;5.30;;;;;;;29.97;100.00;100390.19;143721;580;47003;-69
2023/08/29 04:10:44;;;;;;;14.10;5.62;;;;;;;29.96;100.00;100388.56;143717;610;47008;-69
2023/08/29 04:13:10;;;;;;;8.93;4.75;;;;;;;29.91;100.00;100391.50;143720;597;47004;-69
2023/08/29 04:15:37;;;;;;;10.07;5.37;;;;;;;29.96;100.00;100394.13;143721;567;47006;-69
2023/08/29 04:18:04;;;;;;;6.78;4.72;;;;;;;29.91;100.00;100400.66;143723;729;47002;-70
2023/08/29 04:20:33;;;;;;;13.57;5.07;;;;;;;29.97;100.00;100395.72;143725;578;46025;-69
2023/08/29 04:23:03;;;;;;;12.10;5.57;;;;;;;30.04;100.00;100400.72;143719;578;47004;-70
2023/08/29 04:25:30;;;;;;;14.60;5.53;;;;;;;29.87;100.00;100398.88;143721;575;47006;-69
2023/08/29 04:27:56;;;;;;;15.48;5.57;;;;;;;30.00;100.00;100394.25;143718;593;47002;-70
2023/08/29 04:30:23;;;;;;;10.88;5.45;;;;;;;30.05;100.00;100396.81;143716;570;47008;-69
2023/08/29 04:32:50;;;;;;;10.93;4.68;;;;;;;29.90;100.00;100389.87;143717;677;47004;-69
2023/08/29 04:35:17;;;;;;;14.45;5.70;;;;;;;29.95;100.00;100398.81;143721;605;46006;-68
2023/08/29 04:37:48;;;;;;;9.30;5.50;;;;;;;29.98;100.00;100393.75;143720;608;46008;-68
2023/08/29 04:40:16;;;;;;;6.47;5.87;;;;;;;30.13;100.00;100393.13;143722;601;47011;-69
2023/08/29 04:42:43;;;;;;;9.30;6.40;;;;;;;29.94;100.00;100390.84;143723;587;47004;-69
2023/08/29 04:45:10;;;;;;;13.50;7.18;;;;;;;30.00;100.00;100391.47;143722;691;47002;-68
2023/08/29 04:47:38;;;;;;;9.82;5.57;;;;;;;30.20;100.00;100387.88;143720;572;47002;-70
2023/08/29 04:50:05;;;;;;;7.32;6.55;;;;;;;30.20;100.00;100395.34;143717;567;47008;-70
2023/08/29 04:52:32;;;;;;;10.20;5.57;;;;;;;30.23;100.00;100389.97;143722;607;47004;-71
2023/08/29 04:54:59;;;;;;;8.32;5.53;;;;;;;30.36;100.00;100390.00;143719;600;46929;-69
2023/08/29 04:57:25;;;;;;;11.52;4.87;;;;;;;30.41;100.00;100395.31;143725;628;47004;-70
2023/08/29 04:59:51;;;;;;;9.98;5.20;;;;;;;30.50;100.00;100400.78;143717;586;47009;-70
2023/08/29 05:02:18;;;;;;;11.18;5.35;;;;;;;30.57;100.00;100403.00;143719;569;47004;-71
2023/08/29 05:04:46;;;;;;;7.72;5.03;;;;;;;30.57;100.00;100411.31;143723;590;47006;-70
2023/08/29 05:07:13;;;;;;;7.22;5.07;;;;;;;30.60;100.00;100405.91;143724;580;47012;-70
2023/08/29 05:09:40;;;;;;;14.98;6.10;;;;;;;30.57;100.00;100408.56;143722;619;47011;-69
2023/08/29 05:12:10;;;;;;;8.90;5.70;;;;;;;30.72;100.00;100413.44;143721;569;47006;-69
2023/08/29 05:14:39;;;;;;;10.10;5.97;;;;;;;30.80;100.00;100422.81;143719;601;46008;-69
2023/08/29 05:17:06;;;;;;;9.80;5.07;;;;;;;30.80;100.00;100418.06;143722;657;47004;-69
2023/08/29 05:19:32;;;;;;;8.75;4.87;;;;;;;30.65;100.00;100415.94;143724;582;47006;-69
2023/08/29 05:21:59;;;;;;;10.48;5.97;;;;;;;31.03;100.00;100406.53;143720;603;47006;-69
2023/08/29 05:24:26;;;;;;;9.02;5.00;;;;;;;31.11;100.00;100413.13;143723;572;47009;-69
2023/08/29 05:26:52;;;;;;;8.00;4.62;;;;;;;31.24;100.00;100413.97;143726;585;47004;-69
2023/08/29 05:29:18;;;;;;;7.03;5.37;;;;;;;31.22;100.00;100411.56;143722;598;47010;-69
2023/08/29 05:31:44;;;;;;;14.02;5.18;;;;;;;31.14;100.00;100416.06;143722;597;47006;-69
2023/08/29 05:34:10;;;;;;;8.02;4.80;;;;;;;31.52;100.00;100416.84;143722;566;47008;-69
2023/08/29 05:36:37;;;;;;;7.15;4.70;;;;;;;31.53;100.00;100412.06;143727;590;46008;-69
2023/08/29 05:39:03;;;;;;;7.45;4.65;;;;;;;31.44;100.00;100403.88;143718;573;47013;-68
2023/08/29 05:41:30;;;;;;;9.18;4.80;;;;;;;31.43;100.00;100413.37;143723;568;47006;-70
2023/08/29 05:43:56;;;;;;;10.25;5.00;;;;;;;31.50;100.00;100415.56;143723;620;47008;-69
2023/08/29 05:46:22;;;;;;;7.68;4.62;;;;;;;31.80;100.00;100424.44;143723;634;47004;-71
2023/08/29 05:48:48;;;;;;;7.47;4.62;;;;;;;31.99;100.00;100417.44;143724;624;46012;-70
2023/08/29 05:51:15;;;;;;;13.38;5.15;;;;;;;32.13;100.00;100430.94;143725;567;46012;-69
2023/08/29 05:53:41;;;;;;;7.75;4.00;;;;;;;31.87;100.00;100427.44;143723;591;46008;-71
2023/08/29 05:56:07;;;;;;;11.27;4.40;;;;;;;31.82;99.40;100426.87;143725;612;47006;-71
2023/08/29 05:58:34;;;;;;;13.05;5.07;;;;;;;32.10;95.02;100426.91;143720;587;47010;-69
2023/08/29 06:01:00;;;;;;;9.95;3.97;;;;;;;31.85;88.18;100415.06;143722;589;47006;-69
2023/08/29 06:03:27;;;;;;;7.78;3.85;;;;;;;31.82;91.64;100405.47;143717;617;47008;-69
2023/08/29 06:05:54;;;;;;;5.93;3.90;;;;;;;32.13;89.27;100403.16;143723;623;47004;-70
2023/08/29 06:08:21;;;;;;;7.53;4.12;;;;;;;32.21;100.00;100408.56;143722;612;47010;-69
2023/08/29 06:10:47;;;;;;;5.40;3.95;;;;;;;32.33;90.65;100426.34;143723;598;47004;-67
2023/08/29 06:13:13;;;;;;;6.75;3.97;;;;;;;32.38;98.05;100426.13;143723;666;47006;-69
2023/08/29 06:15:40;;;;;;;6.50;4.22;;;;;;;32.48;91.98;100416.44;143723;607;47002;-69
2023/08/29 06:18:06;;;;;;;8.40;4.12;;;;;;;32.50;89.94;100431.59;143721;599;47008;-69
2023/08/29 06:20:32;;;;;;;5.70;3.70;;;;;;;32.45;91.39;100433.84;143721;568;47004;-68
2023/08/29 06:22:59;;;;;;;6.90;3.92;;;;;;;32.49;91.49;100424.41;143724;633;46007;-68
2023/08/29 06:25:27;;;;;;;6.30;4.05;;;;;;;32.69;90.99;100429.31;143724;574;47002;-67
2023/08/29 06:27:54;;;;;;;6.50;4.10;;;;;;;32.58;93.53;100432.59;143718;652;47010;-68
2023/08/29 06:30:20;;;;;;;6.82;4.10;;;;;;;32.60;93.15;100446.16;143723;598;47004;-68
2023/08/29 06:32:47;;;;;;;5.70;3.80;;;;;;;32.60;93.92;100437.81;143723;627;46006;-68
2023/08/29 06:35:14;;;;;;;8.55;4.12;;;;;;;32.69;90.44;100435.66;143724;619;47002;-68
2023/08/29 06:37:40;;;;;;;6.03;3.58;;;;;;;32.57;92.54;100435.75;143722;671;47010;-68
2023/08/29 06:40:10;;;;;;;6.97;3.80;;;;;;;32.62;93.18;100432.72;143722;592;47004;-69
2023/08/29 06:42:39;;;;;;;5.22;3.75;;;;;;;32.94;92.52;100429.97;143724;626;46007;-68
2023/08/29 06:45:06;;;;;;;6.40;3.45;;;;;;;32.93;91.47;100437.50;143724;575;47003;-66
2023/08/29 06:47:33;;;;;;;5.57;3.75;;;;;;;32.98;92.37;100446.75;143721;583;46928;-69
2023/08/29 06:49:59;;;;;;;4.78;3.45;;;;;;;32.88;95.72;100446.13;143721;592;48932;-69
2023/08/29 06:52:28;;;;;;;5.30;3.72;;;;;;;33.01;92.57;100443.25;143718;587;46006;-69
2023/08/29 06:54:55;;;;;;;8.85;3.60;;;;;;;32.85;92.13;100443.25;143725;577;47002;-68
2023/08/29 06:57:21;;;;;;;6.35;4.15;;;;;;;32.79;94.93;100445.44;143716;575;47008;-67
2023/08/29 06:59:47;;;;;;;5.50;3.55;;;;;;;32.68;99.21;100436.03;143723;598;47004;-68
2023/08/29 07:02:14;;;;;;;5.57;3.75;;;;;;;32.63;98.46;100442.66;143722;567;47006;-69
2023/08/29 07:04:40;;;;;;;4.97;3.70;;;;;;;32.82;99.23;100442.00;143723;592;47004;-67
2023/08/29 07:07:06;;;;;;;5.55;3.62;;;;;;;32.98;99.60;100439.22;143725;575;46025;-69
2023/08/29 07:09:33;;;;;;;10.50;4.00;;;;;;;33.08;100.00;100433.13;143723;605;47008;-68
2023/08/29 07:11:59;;;;;;;7.80;3.90;;;;;;;32.94;100.00;100455.81;143719;589;47006;-67
2023/08/29 07:14:25;;;;;;;5.57;3.55;;;;;;;32.69;100.00;100448.78;143722;573;47002;-68
2023/08/29 07:16:51;;;;;;;6.50;3.37;;;;;;;32.55;100.00;100450.00;143712;592;47013;-67
2023/08/29 07:19:18;;;;;;;6.68;3.83;;;;;;;32.55;100.00;100449.19;143720;643;47008;-70
2023/08/29 07:21:44;;;;;;;7.62;3.70;;;;;;;32.68;100.00;100445.16;143723;592;47006;-69
2023/08/29 07:24:10;;;;;;;11.73;3.92;;;;;;;32.50;100.00;100453.84;143723;706;47002;-69
2023/08/29 07:26:37;;;;;;;5.35;3.67;;;;;;;32.66;100.00;100456.66;143724;685;46928;-70
2023/08/29 07:29:03;;;;;;;6.55;4.10;;;;;;;32.68;100.00;100455.50;143721;581;47005;-68
2023/08/29 07:31:30;;;;;;;5.70;4.03;;;;;;;32.91;100.00;100452.94;143720;605;47927;-70
2023/08/29 07:33:56;;;;;;;6.72;3.78;;;;;;;32.91;100.00;100430.69;143722;613;47002;-69
2023/08/29 07:36:22;;;;;;;9.68;3.80;;;;;;;32.63;100.00;100434.31;143722;581;47009;-68
2023/08/29 07:38:49;;;;;;;10.60;4.15;;;;;;;32.68;100.00;100428.47;143722;636;47004;-70
2023/08/29 07:41:15;;;;;;;6.10;3.85;;;;;;;32.87;100.00;100427.00;143719;591;47000;-70
2023/08/29 07:43:41;;;;;;;9.13;4.35;;;;;;;33.07;100.00;100427.91;143724;659;47004;-72
2023/08/29 07:46:08;;;;;;;8.35;4.45;;;;;;;32.92;100.00;100435.88;143723;574;47008;-69
2023/08/29 07:48:35;;;;;;;6.68;3.97;;;;;;;32.95;100.00;100440.72;143720;659;47004;-70
2023/08/29 07:51:01;;;;;;;7.18;3.85;;;;;;;32.71;100.00;100438.91;143722;589;47006;-69
2023/08/29 07:53:27;;;;;;;7.37;4.35;;;;;;;32.75;100.00;100452.88;143726;615;47006;-70
2023/08/29 07:55:54;;;;;;;78.78;20.48;;;;;;;32.78;100.00;100454.97;143724;572;47008;-73
2023/08/29 07:58:20;;;;;;;13.80;6.18;;;;;;;32.87;100.00;100450.09;143716;567;47004;-70
2023/08/29 08:00:46;;;;;;;8.93;4.68;;;;;;;33.02;100.00;100444.88;143722;601;47006;-70
2023/08/29 08:03:13;;;;;;;9.52;4.60;;;;;;;32.95;100.00;100435.16;143725;580;47000;-70
2023/08/29 08:05:39;;;;;;;4.82;3.95;;;;;;;33.09;100.00;100422.81;143717;605;47010;-70
2023/08/29 08:08:05;;;;;;;8.07;3.90;;;;;;;33.22;100.00;100418.75;143721;618;47004;-70
2023/08/29 08:10:32;;;;;;;9.07;4.95;;;;;;;33.15;100.00;100410.22;143724;634;47006;-73
2023/08/29 08:12:58;;;;;;;5.40;4.57;;;;;;;33.18;100.00;100411.50;143726;573;47006;-71
2023/08/29 08:15:24;;;;;;;9.77;5.47;;;;;;;33.38;100.00;100407.59;143722;592;47011;-70
2023/08/29 08:17:51;;;;;;;8.25;4.18;;;;;;;33.58;100.00;100398.50;143723;744;47004;-70
2023/08/29 08:20:17;;;;;;;8.02;4.50;;;;;;;33.53;100.00;100405.16;143720;610;47006;-71
2023/08/29 08:22:44;;;;;;;7.78;4.40;;;;;;;33.47;100.00;100401.03;143724;603;47002;-71
2023/08/29 08:25:10;;;;;;;8.32;4.50;;;;;;;33.58;100.00;100396.50;143719;579;47008;-72
2023/08/29 08:27:37;;;;;;;8.77;4.37;;;;;;;33.69;100.00;100385.59;143722;573;47004;-69
2023/08/29 08:30:07;;;;;;;7.68;3.80;;;;;;;33.59;100.00;100370.28;143719;592;47006;-71
2023/08/29 08:32:34;;;;;;;7.43;4.22;;;;;;;33.71;100.00;100366.53;143723;597;47002;-72
2023/08/29 08:35:00;;;;;;;7.47;3.60;;;;;;;33.64;100.00;100363.59;143722;588;47010;-69
2023/08/29 08:37:26;;;;;;;6.87;3.97;;;;;;;33.51;100.00;100366.53;143722;610;47004;-68
2023/08/29 08:39:52;;;;;;;6.53;3.83;;;;;;;33.53;100.00;100357.81;143721;568;47006;-70
2023/08/29 08:42:19;;;;;;;7.07;4.40;;;;;;;33.72;100.00;100359.81;143723;630;47004;-69
2023/08/29 08:44:45;;;;;;;8.70;6.30;;;;;;;34.03;100.00;100369.19;143721;644;47010;-68
2023/08/29 08:47:13;;;;;;;6.35;4.12;;;;;;;34.29;100.00;100360.13;143722;676;47004;-68
2023/08/29 08:49:40;;;;;;;6.53;4.50;;;;;;;34.29;100.00;100356.56;143722;607;46006;-68
2023/08/29 08:52:10;;;;;;;6.95;4.60;;;;;;;34.54;100.00;100359.81;143723;579;47002;-68
2023/08/29 08:54:36;;;;;;;9.32;4.50;;;;;;;34.74;100.00;100356.97;143714;574;47008;-68
2023/08/29 08:57:03;;;;;;;5.55;4.05;;;;;;;34.40;100.00;100356.75;143721;596;47004;-67
2023/08/29 08:59:29;;;;;;;6.82;3.62;;;;;;;34.49;100.00;100348.19;143723;573;46007;-70
2023/08/29 09:01:56;;;;;;;6.75;3.90;;;;;;;34.54;100.00;100354.25;143724;613;47002;-71
2023/08/29 09:04:23;;;;;;;7.22;4.00;;;;;;;34.60;100.00;100346.38;143720;576;47010;-69
2023/08/29 09:06:50;;;;;;;8.98;4.12;;;;;;;34.44;100.00;100352.06;143723;604;47008;-69
2023/08/29 09:09:23;;;;;;;7.80;4.22;;;;;;;34.15;100.00;100338.37;143721;592;46006;-70
2023/08/29 09:11:56;;;;;;;5.65;3.90;;;;;;;34.11;100.00;100336.69;143719;613;47004;-69
2023/08/29 09:14:23;;;;;;;4.95;4.28;;;;;;;34.45;100.00;100326.59;143717;582;47011;-69
2023/08/29 09:16:57;;;;;;;6.10;3.70;;;;;;;34.44;100.00;100325.00;143721;600;47004;-71
2023/08/29 09:19:23;;;;;;;;;;;;;;;34.55;100.00;100319.59;143721;986;46006;-68
2023/08/29 09:21:50;;;;;;;4.25;3.72;;;;;;;34.45;100.00;100318.25;143727;587;47000;-68
2023/08/29 09:24:35;;;;;;;5.55;3.97;;;;;;;34.15;100.00;100315.28;143720;583;47008;-70
2023/08/29 09:27:10;;;;;;;7.78;3.80;;;;;;;33.86;100.00;100318.31;143720;588;47004;-71
2023/08/29 09:29:37;;;;;;;7.35;4.00;;;;;;;33.83;100.00;100318.25;143719;597;47006;-71
2023/08/29 09:32:13;;;;;;;6.40;4.15;;;;;;;33.77;100.00;100305.78;143720;568;47004;-68
2023/08/29 09:34:40;;;;;;;5.20;4.00;;;;;;;34.33;100.00;100304.44;143720;628;47008;-68
2023/08/29 09:37:06;;;;;;;7.07;3.75;;;;;;;34.47;100.00;100303.91;143721;581;47004;-69
2023/08/29 09:39:32;;;;;;;9.80;3.67;;;;;;;34.65;100.00;100312.59;143722;592;47006;-68
2023/08/29 09:42:04;;;;;;;5.95;3.72;;;;;;;34.66;100.00;100303.03;143725;622;46006;-70
2023/08/29 09:44:36;;;;;;;5.10;3.80;;;;;;;34.99;100.00;100309.94;143715;645;47011;-69
2023/08/29 09:47:03;;;;;;;7.22;4.82;;;;;;;35.27;100.00;100302.34;143720;584;47004;-68
2023/08/29 09:49:43;;;;;;;4.70;4.10;;;;;;;35.25;100.00;100305.50;143721;584;47006;-69
2023/08/29 09:52:10;;;;;;;7.07;4.15;;;;;;;35.32;100.00;100293.63;143720;629;47004;-70
2023/08/29 09:54:47;;;;;;;7.80;4.05;;;;;;;35.50;100.00;100283.50;143721;585;47010;-69
2023/08/29 09:57:15;;;;;;;6.03;3.95;;;;;;;35.57;100.00;100291.16;143720;604;47008;-69
2023/08/29 09:59:43;;;;;;;9.40;3.80;;;;;;;35.43;100.00;100288.19;143719;606;47007;-70
2023/08/29 10:02:11;;;;;;;4.87;3.87;;;;;;;35.27;100.00;100283.59;143721;567;47002;-68
2023/08/29 10:04:45;;;;;;;8.05;4.30;;;;;;;35.12;100.00;100281.81;143720;591;47010;-68
2023/08/29 10:07:15;;;;;;;6.47;4.10;;;;;;;35.20;100.00;100286.31;143722;637;47009;-71
2023/08/29 10:09:43;;;;;;;7.07;3.53;;;;;;;34.98;100.00;100276.81;143717;581;47006;-69
2023/08/29 10:12:11;;;;;;;10.80;4.30;;;;;;;35.08;100.00;100272.56;143725;602;47000;-69
2023/08/29 10:14:38;;;;;;;6.32;4.18;;;;;;;35.45;100.00;100267.13;143715;568;47010;-70
2023/08/29 10:17:06;;;;;;;7.60;3.80;;;;;;;35.65;100.00;100275.31;143719;648;46932;-72
2023/08/29 10:19:34;;;;;;;8.20;3.95;;;;;;;35.79;100.00;100258.72;143721;605;46006;-69
2023/08/29 10:22:01;;;;;;;6.30;3.90;;;;;;;35.81;100.00;100259.12;143721;602;47002;-66
2023/08/29 10:24:27;;;;;;;7.68;3.78;;;;;;;35.97;100.00;100258.13;143722;826;47004;-66
2023/08/29 10:26:55;;;;;;;7.20;3.42;;;;;;;35.51;100.00;100259.97;143721;567;47004;-65
2023/08/29 10:29:21;;;;;;;7.82;3.65;;;;;;;35.51;100.00;100256.41;143716;589;47005;-65
2023/08/29 10:31:48;;;;;;;6.37;3.65;;;;;;;35.30;100.00;100260.50;143723;623;47002;-66
2023/08/29 10:34:15;;;;;;;7.50;3.50;;;;;;;34.92;100.00;100265.97;143716;584;47004;-66
2023/08/29 10:36:45;;;;;;;8.27;4.05;;;;;;;34.96;100.00;100252.09;143721;615;47002;-65
2023/08/29 10:39:14;;;;;;;7.60;3.72;;;;;;;35.20;100.00;100236.06;143722;613;47006;-65
2023/08/29 10:41:47;;;;;;;6.18;3.47;;;;;;;35.22;100.00;100247.63;143722;642;47002;-67
2023/08/29 10:44:34;;;;;;;6.43;3.80;;;;;;;35.61;100.00;100254.91;143723;573;47011;-66
2023/08/29 10:47:27;;;;;;;7.10;3.47;;;;;;;35.67;100.00;100251.41;143720;568;47008;-65
2023/08/29 10:50:02;;;;;;;7.40;3.70;;;;;;;35.33;100.00;100250.56;143720;656;46006;-67
2023/08/29 10:52:37;;;;;;;6.50;3.65;;;;;;;35.43;100.00;100237.91;143723;592;47010;-64
2023/08/29 10:55:24;;;;;;;6.03;3.70;;;;;;;35.40;100.00;100244.25;143720;604;47928;-66
2023/08/29 10:57:51;;;;;;;6.60;3.50;;;;;;;35.55;100.00;100239.69;143722;716;47008;-67
2023/08/29 11:00:51;;;;;;;6.87;3.95;;;;;;;35.47;100.00;100245.19;143716;592;46013;-65
2023/08/29 11:03:40;;;;;;;7.35;3.70;;;;;;;35.79;100.00;100247.53;143722;620;47004;-66
2023/08/29 11:06:06;;;;;;;10.88;3.30;;;;;;;35.88;100.00;100252.00;143719;606;47006;-66
2023/08/29 11:08:33;;;;;;;5.70;3.42;;;;;;;35.99;100.00;100246.53;143720;602;47006;-66
2023/08/29 11:11:24;;;;;;;7.78;4.57;;;;;;;36.18;100.00;100249.09;143721;584;46008;-65
2023/08/29 11:14:08;;;;;;;5.40;3.60;;;;;;;36.11;100.00;100249.03;143719;689;47004;-65
2023/08/29 11:16:36;;;;;;;6.37;3.62;;;;;;;36.40;100.00;100249.28;143719;606;47010;-64
2023/08/29 11:19:09;;;;;;;6.28;3.28;;;;;;;36.51;100.00;100243.81;143720;572;47006;-65
2023/08/29 11:21:36;;;;;;;6.37;3.75;;;;;;;36.59;100.00;100237.06;143721;637;47009;-66
2023/08/29 11:24:06;;;;;;;8.15;4.10;;;;;;;36.74;100.00;100231.53;143722;612;47004;-66
2023/08/29 11:26:38;;;;;;;7.43;3.87;;;;;;;36.77;100.00;100227.97;143712;804;47006;-66
2023/08/29 11:29:08;;;;;;;8.02;3.95;;;;;;;36.81;100.00;100226.78;143718;607;47006;-65
2023/08/29 11:31:43;;;;;;;7.07;3.95;;;;;;;36.84;100.00;100228.03;143717;611;49928;-66
2023/08/29 11:34:17;;;;;;;6.25;3.90;;;;;;;36.82;100.00;100213.63;143721;594;47005;-66
2023/08/29 11:36:51;;;;;;;8.65;3.95;;;;;;;37.05;100.00;100202.16;143722;577;47006;-66
2023/08/29 11:39:19;;;;;;;;;;;;;;;36.92;100.00;100201.66;143726;980;47006;-67
2023/08/29 11:41:46;;;;;;;6.40;3.55;;;;;;;36.95;100.00;100205.72;143727;756;47002;-68
2023/08/29 11:44:12;;;;;;;9.02;4.37;;;;;;;36.65;100.00;100203.91;143721;611;47007;-67
2023/08/29 11:46:38;;;;;;;5.57;3.70;;;;;;;36.93;100.00;100200.50;143722;570;47006;-67
2023/08/29 11:49:13;;;;;;;11.40;3.85;;;;;;;36.96;100.00;100201.72;143718;584;47006;-68
2023/08/29 11:51:39;;;;;;;4.87;3.30;;;;;;;36.84;100.00;100203.63;143718;630;46008;-68
2023/08/29 11:54:26;;;;;;;6.25;3.97;;;;;;;37.03;100.00;100203.75;143719;601;47006;-67
2023/08/29 11:56:56;;;;;;;9.90;3.83;;;;;;;37.15;100.00;100195.00;143721;706;46009;-67
2023/08/29 11:59:22;;;;;;;6.12;3.50;;;;;;;37.06;100.00;100189.75;143716;786;47004;-66
2023/08/29 12:01:49;;;;;;;6.82;3.95;;;;;;;36.74;100.00;100187.59;143721;589;47006;-68
2023/08/29 12:04:15;;;;;;;5.90;3.53;;;;;;;36.65;100.00;100187.13;143721;635;47004;-67
2023/08/29 12:06:43;;;;;;;8.48;4.10;;;;;;;36.58;100.00;100195.50;143721;568;47011;-68
2023/08/29 12:09:21;;;;;;;6.97;3.78;;;;;;;36.78;100.00;100182.00;143720;633;47004;-68
2023/08/29 12:11:47;;;;;;;8.90;4.20;;;;;;;36.74;100.00;100182.00;143722;719;47006;-69
2023/08/29 12:14:14;;;;;;;10.30;4.40;;;;;;;36.99;100.00;100184.94;143717;618;47004;-67
2023/08/29 12:16:40;;;;;;;6.90;4.35;;;;;;;37.03;100.00;100182.16;143717;585;46010;-67
2023/08/29 12:19:08;;;;;;;6.07;3.67;;;;;;;37.07;100.00;100182.97;143719;582;47004;-67
2023/08/29 12:21:35;;;;;;;9.48;3.90;;;;;;;36.71;100.00;100175.16;143722;636;46006;-67
2023/08/29 12:24:14;;;;;;;9.30;3.65;;;;;;;36.71;100.00;100177.19;143721;715;47002;-68
2023/08/29 12:26:40;;;;;;;9.73;4.03;;;;;;;36.42;100.00;100174.19;143718;770;47009;-65
2023/08/29 12:29:06;;;;;;;7.45;3.92;;;;;;;36.42;100.00;100175.00;143722;607;46012;-67
2023/08/29 12:31:33;;;;;;;5.82;3.42;;;;;;;36.67;100.00;100159.56;143721;589;46006;-67
2023/08/29 12:33:59;;;;;;;5.28;3.60;;;;;;;36.25;100.00;100161.69;143720;733;47002;-68
2023/08/29 12:36:25;;;;;;;7.50;3.45;;;;;;;36.39;100.00;100147.78;143722;579;47004;-67
2023/08/29 12:38:52;;;;;;;8.25;4.53;;;;;;;36.55;100.00;100143.91;143718;605;47004;-67
2023/08/29 12:41:18;;;;;;;6.97;3.37;;;;;;;36.38;100.00;100151.78;143716;714;47006;-67
2023/08/29 12:43:44;;;;;;;9.00;3.78;;;;;;;36.65;100.00;100137.59;143723;868;47002;-67
2023/08/29 12:46:11;;;;;;;6.20;3.78;;;;;;;36.62;100.00;100141.16;143720;595;47010;-68
2023/08/29 12:48:37;;;;;;;9.07;4.35;;;;;;;36.52;100.00;100142.72;143721;628;47008;-68
2023/08/29 12:51:03;;;;;;;6.30;4.05;;;;;;;36.47;100.00;100142.28;143719;637;47010;-66
2023/08/29 12:53:30;;;;;;;9.25;3.97;;;;;;;36.44;100.00;100141.06;143720;579;47004;-67
2023/08/29 12:55:56;;;;;;;5.50;3.40;;;;;;;36.31;100.00;100145.34;143719;625;47926;-67
2023/08/29 12:58:22;;;;;;;5.57;3.33;;;;;;;36.29;100.00;100136.53;143719;633;47004;-67
2023/08/29 13:00:48;;;;;;;6.78;4.20;;;;;;;36.28;100.00;100130.16;143720;574;47006;-68
2023/08/29 13:03:14;;;;;;;6.68;4.15;;;;;;;36.35;100.00;100135.00;143724;832;47002;-67
2023/08/29 13:05:40;;;;;;;7.15;3.90;;;;;;;36.36;100.00;100133.81;143718;621;46010;-68
2023/08/29 13:08:07;;;;;;;8.07;3.95;;;;;;;36.29;100.00;100133.75;143720;566;47008;-68
2023/08/29 13:10:34;;;;;;;5.53;3.75;;;;;;;36.31;100.00;100131.38;143722;600;46006;-68
2023/08/29 13:13:00;;;;;;;7.32;3.85;;;;;;;36.29;100.00;100130.94;143722;766;46007;-67
2023/08/29 13:15:26;;;;;;;7.32;3.85;;;;;;;36.34;100.00;100138.97;143720;741;47008;-67
2023/08/29 13:17:53;;;;;;;6.47;3.62;;;;;;;36.34;100.00;100128.59;143721;596;47004;-67
2023/08/29 13:20:21;;;;;;;7.72;4.00;;;;;;;36.33;100.00;100128.97;143719;682;47002;-67
2023/08/29 13:22:49;;;;;;;8.68;5.25;;;;;;;36.42;100.00;100121.06;143723;679;47002;-66